Flight Track Log - Related Links

Times and Time Zones

All times are in EDT time to prevent confusion due to time zone crossing. See the AAY891 flight status page for this flight to view local times or setup timezone preferences in your user account.

Time Position Orientation Groundspeed Altitude Reporting Facility
EDT Latitude Longitude Course Direction KTS MPH feet Rate Location/Type
Mon 05:26:16 PM 40.8908 -85.2544 170° South 252 290 3,800  Level Chicago Center
Mon 05:26:25 PM 40.8908 -85.2544 170° South 252 290 3,700 3,000 Descending Indianapolis Center
Mon 05:27:18 PM 40.8272 -85.1947 145° Southeast 275 316 6,900 3,207 Climbing Chicago Center
Mon 05:28:21 PM 40.7475 -85.1150 143° Southeast 294 338 9,900 2,064 Climbing Chicago Center
Mon 05:29:23 PM 40.6708 -85.0386 143° Southeast 335 386 11,200 1,742 Climbing Chicago Center
Mon 05:30:25 PM 40.5789 -84.9458 143° Southeast 389 448 13,500 2,274 Climbing Chicago Center
Mon 05:31:00 PM 39.9362 -84.9622 170° South  Level Estimated
Mon 05:31:27 PM 40.4889 -84.8558 143° Southeast 412 474 15,900  Level Chicago Center
Mon 05:32:37 PM 40.3700 -84.7369 143° Southeast 430 495 18,200 1,818 Climbing Indianapolis Center
Mon 05:33:39 PM 40.2697 -84.6408 144° Southeast 444 511 19,900 1,597 Climbing Indianapolis Center
Mon 05:34:41 PM 40.1658 -84.5414 144° Southeast 459 528 21,500 1,016 Climbing Indianapolis Center
Mon 05:35:43 PM 40.0614 -84.4406 144° Southeast 467 537 22,000 677 Climbing Indianapolis Center
Mon 05:36:45 PM 39.9403 -84.3911 163° South 470 541 22,900 1,016 Climbing Indianapolis Center
Mon 05:37:47 PM 39.8097 -84.3803 176° South 471 542 24,100 1,113 Climbing Indianapolis Center
Mon 05:38:49 PM 39.6483 -84.3750 179° South 483 556 25,200 1,355 Climbing Indianapolis Center
Mon 05:39:51 PM 39.5086 -84.3697 178° South 497 572 26,900 1,645 Climbing Indianapolis Center
Mon 05:40:53 PM 39.3736 -84.3608 177° South 493 567 28,600 1,403 Climbing Indianapolis Center
Mon 05:41:55 PM 39.2389 -84.3475 176° South 488 562 29,800 968 Climbing Indianapolis Center
Mon 05:42:57 PM 39.1058 -84.3389 177° South 483 556 30,600 919 Climbing Indianapolis Center
Mon 05:43:59 PM 38.9442 -84.3328 178° South 485 558 31,700 871 Climbing Indianapolis Center
Mon 05:45:01 PM 38.8097 -84.3269 178° South 484 557 32,400 624 Climbing Indianapolis Center
Mon 05:46:04 PM 38.6769 -84.3172 177° South 481 554 33,000 288 Climbing Indianapolis Center
Mon 05:47:06 PM 38.5369 -84.2958 173° South 479 551 33,000  Level Indianapolis Center
Mon 05:48:08 PM 38.4033 -84.2725 172° South 482 555 33,000  Level Indianapolis Center
Mon 05:49:10 PM 38.2706 -84.2492 172° South 482 555 33,000  Level Indianapolis Center
Mon 05:50:11 PM 38.1369 -84.2322 174° South 483 556 33,000  Level Indianapolis Center
Mon 05:51:13 PM 37.9825 -84.2114 174° South 478 550 33,000  Level Indianapolis Center
Mon 05:52:15 PM 37.8514 -84.1911 173° South 474 545 33,000  Level Indianapolis Center
Mon 05:53:17 PM 37.7222 -84.1672 172° South 473 544 33,000  Level Indianapolis Center
Mon 05:54:19 PM 37.5928 -84.1453 172° South 471 542 33,000  Level Indianapolis Center
Mon 05:55:21 PM 37.4667 -84.1253 173° South 461 531 33,000  Level Indianapolis Center
Mon 05:56:23 PM 37.3153 -84.1053 174° South 466 536 33,000  Level Indianapolis Center
Mon 05:57:25 PM 37.1842 -84.0867 174° South 473 544 33,000  Level Indianapolis Center
Mon 05:58:27 PM 37.0531 -84.0664 173° South 473 544 33,000  Level Indianapolis Center
Mon 05:59:29 PM 36.9231 -84.0461 173° South 473 544 33,000  Level Indianapolis Center
Mon 06:00:31 PM 36.7939 -84.0247 172° South 471 542 33,000  Level Indianapolis Center
Mon 06:01:33 PM 36.6417 -84.0036 174° South 470 541 33,000  Level Indianapolis Center
Mon 06:02:35 PM 36.5106 -83.9844 173° South 473 544 33,000  Level Indianapolis Center
Mon 06:03:37 PM 36.3911 -83.9753 176° South 478 550 33,000  Level Indianapolis Center
Mon 06:04:39 PM 36.2614 -83.9969 188° South 471 542 33,000  Level Indianapolis Center
Mon 06:05:41 PM 36.1072 -84.0281 189° South 466 536 33,000  Level Indianapolis Center
Mon 06:06:43 PM 35.9761 -84.0503 188° South 470 541 33,000  Level Indianapolis Center
Mon 06:07:45 PM 35.8456 -84.0689 187° South 469 540 33,000  Level Indianapolis Center
Mon 06:08:45 PM 35.7078 -84.0925 188° South 480 552 33,000  Level Atlanta Center
Mon 06:09:45 PM 35.5764 -84.1178 189° South 480 552 33,000  Level Atlanta Center
Mon 06:10:45 PM 35.4469 -84.1408 188° South 480 552 33,000  Level Atlanta Center
Mon 06:11:45 PM 35.3156 -84.1608 187° South 480 552 33,000  Level Atlanta Center
Mon 06:12:45 PM 35.1842 -84.1811 187° South 480 552 33,000  Level Atlanta Center
Mon 06:13:45 PM 35.0525 -84.2036 188° South 480 552 33,000  Level Atlanta Center
Mon 06:14:45 PM 34.9253 -84.2211 186° South 480 552 33,000  Level Atlanta Center
Mon 06:15:45 PM 34.7897 -84.2461 189° South 485 558 33,000  Level Atlanta Center
Mon 06:16:45 PM 34.6581 -84.2711 189° South 479 551 33,000  Level Atlanta Center
Mon 06:17:45 PM 34.5267 -84.2908 187° South 484 557 33,000  Level Atlanta Center
Mon 06:18:45 PM 34.3950 -84.3106 187° South 484 557 33,000  Level Atlanta Center
Mon 06:19:45 PM 34.2594 -84.3328 188° South 484 557 33,000  Level Atlanta Center
Mon 06:20:45 PM 34.1425 -84.3525 188° South 484 557 33,000  Level Atlanta Center
Mon 06:21:45 PM 34.0067 -84.3772 189° South 484 557 33,000  Level Atlanta Center
Mon 06:22:45 PM 33.8794 -84.3967 187° South 486 559 33,000  Level Atlanta Center
Mon 06:23:45 PM 33.7372 -84.4186 187° South 486 559 33,000  Level Atlanta Center
Mon 06:24:45 PM 33.6058 -84.4353 186° South 481 554 33,000  Level Atlanta Center
Mon 06:25:45 PM 33.4639 -84.4347 180° South 481 554 33,000  Level Atlanta Center
Mon 06:26:45 PM 33.3322 -84.4292 178° South 475 547 33,000  Level Atlanta Center
Mon 06:27:45 PM 33.2008 -84.4261 179° South 475 547 33,000  Level Atlanta Center
Mon 06:28:45 PM 33.0672 -84.4281 181° South 481 554 33,000  Level Atlanta Center
Mon 06:29:45 PM 32.9483 -84.4250 179° South 475 547 33,000  Level Atlanta Center
Mon 06:30:45 PM 32.8167 -84.4269 181° South 475 547 33,000  Level Atlanta Center
Mon 06:31:45 PM 32.6875 -84.4189 177° South 475 547 33,000  Level Atlanta Center
Mon 06:32:45 PM 32.5558 -84.4158 179° South 475 547 33,000  Level Atlanta Center
Mon 06:33:45 PM 32.4244 -84.4153 180° South 475 547 33,000  Level Atlanta Center
Mon 06:34:45 PM 32.2931 -84.4100 178° South 475 547 33,000  Level Atlanta Center
Mon 06:35:45 PM 32.1636 -84.4094 180° South 475 547 33,000  Level Atlanta Center
Mon 06:36:29 PM 32.0364 -84.4022 177° South 475 547 33,000  Level Jacksonville Center
Mon 06:37:29 PM 31.9194 -84.4003 179° South 470 541 33,000  Level Jacksonville Center
Mon 06:38:29 PM 31.7858 -84.3981 179° South 470 541 33,000  Level Jacksonville Center
Mon 06:39:29 PM 31.6647 -84.3986 180° South 476 548 33,000  Level Jacksonville Center
Mon 06:40:29 PM 31.5356 -84.3819 174° South 476 548 33,000  Level Jacksonville Center
Mon 06:41:29 PM 31.4067 -84.3408 165° South 476 548 33,000  Level Jacksonville Center
Mon 06:42:29 PM 31.2819 -84.3000 164° South 476 548 33,000  Level Jacksonville Center
Mon 06:43:29 PM 31.1569 -84.2642 166° South 471 542 33,000  Level Jacksonville Center
Mon 06:44:29 PM 31.0278 -84.2333 168° South 471 542 33,000  Level Jacksonville Center
Mon 06:45:29 PM 30.9028 -84.1975 166° South 471 542 33,000  Level Jacksonville Center
Mon 06:46:29 PM 30.7758 -84.1594 166° South 471 542 33,000  Level Jacksonville Center
Mon 06:47:29 PM 30.6511 -84.1217 165° South 471 542 33,000  Level Jacksonville Center
Mon 06:48:29 PM 30.5261 -84.0911 168° South 471 542 33,000  Level Jacksonville Center
Mon 06:49:29 PM 30.3989 -84.0583 167° South 471 542 33,000  Level Jacksonville Center
Mon 06:50:29 PM 30.2697 -84.0231 167° South 471 542 33,000  Level Jacksonville Center
Mon 06:51:29 PM 30.1428 -83.9856 166° South 471 542 33,000  Level Jacksonville Center
Mon 06:52:29 PM 30.0158 -83.9506 167° South 471 542 33,000  Level Jacksonville Center
Mon 06:53:29 PM 29.8886 -83.9156 167° South 471 542 33,000  Level Jacksonville Center
Mon 06:54:29 PM 29.7639 -83.8689 162° South 471 542 33,000  Level Jacksonville Center
Mon 06:55:29 PM 29.6517 -83.7958 150° Southeast 471 542 33,000  Level Jacksonville Center
Mon 06:56:29 PM 29.5414 -83.7161 148° Southeast 465 535 33,000 -950 Level Jacksonville Center
Mon 06:57:29 PM 29.4333 -83.6414 149° Southeast 465 535 31,100 -1,950 Descending Jacksonville Center
Mon 06:58:29 PM 29.3231 -83.5761 153° Southeast 458 527 29,100 -2,000 Descending Jacksonville Center
Mon 06:59:29 PM 29.2169 -83.5136 153° Southeast 447 514 27,100 -1,850 Descending Jacksonville Center
Mon 07:00:29 PM 29.1214 -83.4489 149° Southeast 422 486 25,400 -1,700 Descending Jacksonville Center
Mon 07:01:29 PM 29.0233 -83.3842 150° Southeast 407 468 23,700 -1,900 Descending Jacksonville Center
Mon 07:02:29 PM 28.9131 -83.3125 150° Southeast 407 468 21,600 -1,950 Descending Jacksonville Center
Mon 07:03:29 PM 28.8131 -83.2528 152° Southeast 407 468 19,800 -1,750 Descending Jacksonville Center
Mon 07:04:29 PM 28.7172 -83.1908 150° Southeast 407 468 18,100 -1,622 Descending Jacksonville Center
Mon 07:05:57 PM 28.5833 -83.1000 149° Southeast 371 427 15,800 -1,541 Descending Tampa TRACON
Mon 07:06:57 PM 28.5000 -83.0500 152° Southeast 345 397 14,300 -1,500 Descending Tampa TRACON
Mon 07:07:57 PM 28.4167 -83.0000 152° Southeast 320 368 12,800 -1,400 Descending Tampa TRACON
Mon 07:08:57 PM 28.3500 -82.9333 139° Southeast 302 348 11,500 -1,550 Descending Tampa TRACON
Mon 07:09:57 PM 28.2833 -82.8667 139° Southeast 291 335 9,700 -1,650 Descending Tampa TRACON
Mon 07:10:57 PM 28.2333 -82.8167 139° Southeast 292 336 8,200 -1,850 Descending Tampa TRACON
Mon 07:11:57 PM 28.1667 -82.7667 147° Southeast 283 326 6,000 -1,950 Descending Tampa TRACON
Mon 07:12:57 PM 28.0833 -82.7500 170° South 284 327 4,300 -1,450 Descending Tampa TRACON
Mon 07:13:57 PM 28.0167 -82.7333 168° South 265 305 3,100 -650 Descending Tampa TRACON
Mon 07:14:57 PM 27.9500 -82.7500 192° South 227 261 3,000 -250 Descending Tampa TRACON
Mon 07:15:57 PM 27.8833 -82.7500 180° South 224 258 2,600 -700 Descending Tampa TRACON
Mon 07:16:57 PM 27.8333 -82.7333 164° South 173 199 1,600 -800 Descending Tampa TRACON
Mon 07:17:57 PM 27.8333 -82.6833 90° East 148 170 1,000 -600 Descending Tampa TRACON
Mon 07:18:57 PM 27.8833 -82.6833 360° North 144 166 400 -600 Descending Tampa TRACON

Login

Don't have an account? Register now (free) for customized features, flight alerts, and more!